Time;durP1;ratioP1;P1;durP2;ratioP2;P2;SDS_P1;SDS_P2;PMS_P1;PMS_P2;Temp;Humidity;BMP_temperature;BMP_pressure;BME280_temperature;BME280_humidity;BME280_pressure;Samples;Min_cycle;Max_cycle;Signal;HPM_P1;HPM_P2
2022/09/30 00:01:31;;;;;;;20.75;17.08;;;8.80;99.90;;;;;;5076089;28;20039;-66
2022/09/30 00:03:57;;;;;;;18.27;15.75;;;8.80;99.90;;;;;;5059707;28;20044;-65
2022/09/30 00:06:25;;;;;;;21.00;15.55;;;9.00;99.90;;;;;;5076161;28;20067;-67
2022/09/30 00:08:51;;;;;;;23.45;15.43;;;9.00;99.90;;;;;;5075984;28;20054;-65
2022/09/30 00:11:24;;;;;;;17.45;15.20;;;8.90;99.90;;;;;;5076131;28;20047;-65
2022/09/30 00:13:51;;;;;;;19.10;15.70;;;9.10;99.90;;;;;;5076526;28;20601;-66
2022/09/30 00:16:20;;;;;;;15.65;14.05;;;9.10;99.90;;;;;;5059357;28;20101;-65
2022/09/30 00:18:45;;;;;;;25.00;18.17;;;9.10;99.90;;;;;;5075846;28;20489;-65
2022/09/30 00:21:14;;;;;;;23.70;16.50;;;8.70;99.90;;;;;;5075891;28;20050;-66
2022/09/30 00:23:40;;;;;;;24.13;16.83;;;8.50;99.90;;;;;;5076999;28;20519;-66
2022/09/30 00:26:12;;;;;;;17.48;13.93;;;8.70;99.90;;;;;;5058695;28;20115;-66
2022/09/30 00:28:39;;;;;;;27.80;18.30;;;8.80;99.90;;;;;;5075697;28;20048;-66
2022/09/30 00:31:10;;;;;;;22.75;16.17;;;8.80;99.90;;;;;;5041454;28;20048;-65
2022/09/30 00:33:36;;;;;;;23.67;16.90;;;8.40;99.90;;;;;;5075367;28;20039;-66
2022/09/30 00:36:03;;;;;;;29.20;21.25;;;8.40;99.90;;;;;;5057547;28;20192;-66
2022/09/30 00:38:29;;;;;;;27.48;21.52;;;8.60;99.90;;;;;;5075667;28;20126;-65
2022/09/30 00:40:55;;;;;;;30.65;19.42;;;8.60;99.90;;;;;;5058648;28;20465;-66
2022/09/30 00:43:40;;;;;;;22.55;16.80;;;8.30;99.90;;;;;;5074988;28;20071;-66
2022/09/30 00:46:15;;;;;;;24.00;16.95;;;8.60;99.90;;;;;;5075099;28;20039;-66
2022/09/30 00:48:42;;;;;;;22.98;16.75;;;8.10;99.90;;;;;;5075151;28;20040;-65
2022/09/30 00:51:08;;;;;;;19.50;16.08;;;8.60;99.90;;;;;;5075339;28;20098;-66
2022/09/30 00:53:49;;;;;;;20.65;15.90;;;8.20;99.90;;;;;;5058601;28;20036;-66
2022/09/30 00:56:23;;;;;;;18.95;16.13;;;8.60;99.90;;;;;;5076387;28;20443;-66
2022/09/30 00:59:04;;;;;;;;;;;8.30;99.90;;;;;;5076359;28;20412;-66
2022/09/30 01:01:30;;;;;;;22.27;15.35;;;8.40;99.90;;;;;;5075675;28;20456;-65
2022/09/30 01:04:01;;;;;;;17.58;14.68;;;8.30;99.90;;;;;;5058801;28;20154;-66
2022/09/30 01:06:27;;;;;;;18.60;16.48;;;8.60;99.90;;;;;;5059739;28;20036;-66
2022/09/30 01:08:54;;;;;;;19.08;14.43;;;8.20;99.90;;;;;;5062284;28;20363;-65
2022/09/30 01:11:20;;;;;;;16.08;14.38;;;8.30;99.90;;;;;;5078655;28;20486;-65
2022/09/30 01:13:50;;;;;;;18.23;14.00;;;8.50;99.90;;;;;;5060875;28;20044;-65
2022/09/30 01:16:37;;;;;;;17.55;13.43;;;8.20;99.90;;;;;;5096207;28;20146;-65
2022/09/30 01:19:33;;;;;;;18.73;14.90;;;8.40;99.90;;;;;;5077998;28;20036;-66
2022/09/30 01:22:26;;;;;;;16.80;14.45;;;8.20;99.90;;;;;;5062461;28;20040;-66
2022/09/30 01:25:03;;;;;;;16.95;13.68;;;8.20;99.90;;;;;;5061595;28;20123;-66
2022/09/30 01:27:58;;;;;;;21.73;17.00;;;8.20;99.90;;;;;;5095479;28;20085;-65
2022/09/30 01:31:02;;;;;;;17.55;14.48;;;8.10;99.90;;;;;;5079153;28;20073;-65
2022/09/30 01:33:34;;;;;;;24.23;20.37;;;8.50;99.90;;;;;;5079392;28;20039;-66
2022/09/30 01:36:33;;;;;;;23.10;16.52;;;7.90;99.90;;;;;;5078730;28;20093;-64
2022/09/30 01:39:11;;;;;;;25.58;19.10;;;8.00;99.90;;;;;;5067666;28;20850;-66
2022/09/30 01:41:51;;;;;;;25.27;17.70;;;8.30;99.90;;;;;;5077668;28;20047;-66
2022/09/30 01:44:48;;;;;;;26.30;19.40;;;8.00;99.90;;;;;;5078567;28;20181;-64
2022/09/30 01:47:21;;;;;;;26.08;18.80;;;7.80;99.90;;;;;;5078788;28;20055;-65
2022/09/30 01:49:53;;;;;;;25.52;16.85;;;7.70;99.90;;;;;;5078904;28;20270;-66
2022/09/30 01:52:29;;;;;;;30.90;19.23;;;8.00;99.90;;;;;;5078487;28;20090;-66
2022/09/30 01:55:00;;;;;;;24.35;19.08;;;8.00;99.90;;;;;;5078143;28;20076;-66
2022/09/30 01:57:41;;;;;;;41.33;25.70;;;7.50;99.90;;;;;;5078443;28;20066;-65
2022/09/30 02:00:11;;;;;;;38.05;23.40;;;7.80;99.90;;;;;;5078576;28;20325;-65
2022/09/30 02:02:57;;;;;;;31.70;22.13;;;8.00;99.90;;;;;;5078556;28;20055;-66
2022/09/30 02:05:49;;;;;;;24.85;19.83;;;7.90;99.90;;;;;;5078278;28;20102;-66
2022/09/30 02:08:23;;;;;;;42.58;26.15;;;7.80;99.90;;;;;;5078061;28;20040;-65
2022/09/30 02:11:09;;;;;;;36.25;24.10;;;7.50;99.90;;;;;;5061177;28;20071;-66
2022/09/30 02:13:44;;;;;;;34.38;23.98;;;7.60;99.90;;;;;;5061591;28;20135;-66
2022/09/30 02:16:16;;;;;;;32.83;23.63;;;7.80;99.90;;;;;;5077810;28;20307;-66
2022/09/30 02:18:46;;;;;;;25.60;21.15;;;7.70;99.90;;;;;;5061388;28;20039;-65
2022/09/30 02:21:19;;;;;;;32.00;23.02;;;7.60;99.90;;;;;;5060776;28;20090;-66
2022/09/30 02:23:48;;;;;;;34.85;25.13;;;7.40;99.90;;;;;;5077874;28;20058;-65
2022/09/30 02:26:26;;;;;;;29.75;21.65;;;7.20;99.90;;;;;;5077671;28;20319;-68
2022/09/30 02:29:02;;;;;;;33.65;22.85;;;7.80;99.90;;;;;;5048028;28;20044;-66
2022/09/30 02:31:30;;;;;;;36.20;24.70;;;7.40;99.90;;;;;;5077153;28;20044;-65
2022/09/30 02:34:03;;;;;;;42.35;27.80;;;7.40;99.90;;;;;;5077717;28;20132;-65
2022/09/30 02:36:32;;;;;;;31.50;24.38;;;7.30;99.90;;;;;;5077750;28;20048;-66
2022/09/30 02:39:26;;;;;;;35.15;23.23;;;7.80;99.90;;;;;;5060672;28;20101;-66
2022/09/30 02:41:54;;;;;;;;;;;7.70;99.90;;;;;;5078233;28;20456;-66
2022/09/30 02:44:20;;;;;;;23.08;20.60;;;7.30;99.90;;;;;;5060798;28;20632;-65
2022/09/30 02:47:11;;;;;;;45.42;31.15;;;7.60;99.90;;;;;;5077193;28;20035;-65
2022/09/30 02:49:49;;;;;;;45.92;32.40;;;7.20;99.90;;;;;;5077640;28;20036;-66
2022/09/30 02:52:49;;;;;;;62.95;36.90;;;7.30;99.90;;;;;;5077624;28;20095;-66
2022/09/30 02:55:36;;;;;;;43.92;28.60;;;7.30;99.90;;;;;;5076597;28;20502;-66
2022/09/30 02:58:12;;;;;;;46.35;32.25;;;7.20;99.90;;;;;;5076899;28;20047;-66
2022/09/30 03:00:39;;;;;;;32.70;24.52;;;7.20;99.90;;;;;;5077180;28;20471;-66
2022/09/30 03:03:15;;;;;;;34.42;25.48;;;7.10;99.90;;;;;;5076939;28;20048;-66
2022/09/30 03:05:41;;;;;;;44.00;30.13;;;7.00;99.90;;;;;;5076815;28;20079;-66
2022/09/30 03:08:07;;;;;;;55.85;37.20;;;7.00;99.90;;;;;;5076672;28;20129;-65
2022/09/30 03:10:33;;;;;;;43.08;28.08;;;7.00;99.90;;;;;;5060327;28;20039;-66
2022/09/30 03:13:01;;;;;;;41.10;29.70;;;6.80;99.90;;;;;;5077160;28;20402;-66
2022/09/30 03:15:58;;;;;;;43.88;32.05;;;7.00;99.90;;;;;;5077162;28;20078;-66
2022/09/30 03:18:44;;;;;;;34.33;25.25;;;6.70;99.90;;;;;;5076594;28;20050;-68
2022/09/30 03:21:25;;;;;;;46.28;30.88;;;6.90;99.90;;;;;;5077230;28;20502;-67
2022/09/30 03:24:21;;;;;;;44.20;31.17;;;7.10;99.90;;;;;;5075564;28;20051;-66
2022/09/30 03:26:59;;;;;;;43.35;31.40;;;7.10;99.90;;;;;;5076606;28;20036;-67
2022/09/30 03:30:02;;;;;;;36.05;26.80;;;6.70;99.90;;;;;;5076804;28;20086;-67
2022/09/30 03:32:34;;;;;;;29.00;23.60;;;6.80;99.90;;;;;;5032383;28;20399;-66
2022/09/30 03:35:02;;;;;;;39.95;28.10;;;7.00;99.90;;;;;;5038213;28;20290;-66
2022/09/30 03:37:51;;;;;;;38.67;28.80;;;6.90;99.90;;;;;;5076001;28;20066;-66
2022/09/30 03:40:51;;;;;;;26.55;21.45;;;7.00;99.90;;;;;;5061672;28;20401;-67
2022/09/30 03:43:43;;;;;;;39.22;27.00;;;6.50;99.90;;;;;;5076632;28;20818;-66
2022/09/30 03:46:15;;;;;;;61.97;37.28;;;6.80;99.90;;;;;;5046654;28;20086;-67
2022/09/30 03:48:42;;;;;;;37.03;26.30;;;6.60;99.90;;;;;;5059684;28;20040;-66
2022/09/30 03:51:08;;;;;;;41.60;29.08;;;6.50;99.90;;;;;;5059086;28;20044;-68
2022/09/30 03:53:41;;;;;;;56.03;35.80;;;6.60;99.90;;;;;;5076040;28;20043;-67
2022/09/30 03:56:07;;;;;;;41.28;27.92;;;6.60;99.90;;;;;;5092988;28;20506;-66
2022/09/30 03:58:33;;;;;;;45.30;31.75;;;6.60;99.90;;;;;;5076555;28;20043;-66
2022/09/30 04:00:59;;;;;;;47.60;34.13;;;6.60;99.90;;;;;;5076020;28;20044;-66
2022/09/30 04:03:26;;;;;;;44.30;32.78;;;6.30;99.90;;;;;;5076792;28;20048;-66
2022/09/30 04:05:52;;;;;;;37.20;28.75;;;6.30;99.90;;;;;;5076878;28;20041;-66
2022/09/30 04:08:18;;;;;;;40.60;31.63;;;6.60;99.90;;;;;;5059423;28;20043;-67
2022/09/30 04:10:44;;;;;;;43.80;32.80;;;6.60;99.90;;;;;;5059366;28;20494;-66
2022/09/30 04:13:10;;;;;;;50.92;34.60;;;6.90;99.90;;;;;;5075984;28;20044;-66
2022/09/30 04:15:36;;;;;;;37.40;29.38;;;6.40;99.90;;;;;;5092644;28;20040;-66
2022/09/30 04:18:04;;;;;;;47.58;33.83;;;6.50;99.90;;;;;;5075758;28;20050;-66
2022/09/30 04:20:30;;;;;;;36.70;28.67;;;6.70;99.90;;;;;;5075651;28;20162;-66
2022/09/30 04:23:00;;;;;;;69.47;42.83;;;7.00;99.90;;;;;;5075711;28;20044;-66
2022/09/30 04:25:27;;;;;;;73.53;44.70;;;6.40;99.90;;;;;;5058949;28;20043;-66
2022/09/30 04:27:53;;;;;;;71.90;41.42;;;6.40;99.90;;;;;;5076006;28;20067;-66
2022/09/30 04:30:19;;;;;;;54.08;35.15;;;6.30;99.90;;;;;;5059224;28;20616;-66
2022/09/30 04:32:45;;;;;;;69.57;42.20;;;6.30;99.90;;;;;;5058118;28;20044;-66
2022/09/30 04:35:12;;;;;;;68.78;44.05;;;6.40;99.90;;;;;;5059208;28;20066;-67
2022/09/30 04:37:45;;;;;;;60.95;41.08;;;6.60;99.90;;;;;;5058912;28;20514;-65
2022/09/30 04:40:12;;;;;;;54.70;38.55;;;6.80;99.90;;;;;;5075854;28;20094;-66
2022/09/30 04:42:39;;;;;;;48.50;35.05;;;6.30;99.90;;;;;;5079858;28;20067;-66
2022/09/30 04:45:06;;;;;;;70.97;43.85;;;6.80;99.90;;;;;;5045324;28;20051;-67
2022/09/30 04:47:31;;;;;;;63.22;40.70;;;6.20;99.90;;;;;;5062599;28;21313;-66
2022/09/30 04:49:57;;;;;;;61.95;40.63;;;6.50;99.90;;;;;;5079947;28;20145;-66
2022/09/30 04:52:23;;;;;;;54.58;35.80;;;6.30;99.90;;;;;;5081213;28;20036;-66
2022/09/30 04:54:49;;;;;;;71.05;43.47;;;6.70;99.90;;;;;;5063255;28;20299;-66
2022/09/30 04:57:14;;;;;;;68.68;44.00;;;6.40;99.90;;;;;;5079859;28;20044;-66
2022/09/30 04:59:40;;;;;;;74.15;47.08;;;6.20;99.90;;;;;;5063077;28;20048;-66
2022/09/30 05:02:06;;;;;;;78.97;46.90;;;6.20;99.90;;;;;;5062936;28;20040;-66
2022/09/30 05:04:32;;;;;;;80.65;48.35;;;6.00;99.90;;;;;;5062744;28;20460;-66
2022/09/30 05:07:00;;;;;;;67.07;44.80;;;6.10;99.90;;;;;;5079909;28;20044;-67
2022/09/30 05:09:26;;;;;;;60.85;40.58;;;6.40;99.90;;;;;;5045800;28;20074;-66
2022/09/30 05:11:52;;;;;;;61.13;42.83;;;6.20;99.90;;;;;;5061585;28;20040;-67
2022/09/30 05:14:18;;;;;;;78.55;49.65;;;6.10;99.90;;;;;;5062007;28;20064;-66
2022/09/30 05:16:43;;;;;;;69.93;45.30;;;6.70;99.90;;;;;;5079267;28;20052;-67
2022/09/30 05:19:09;;;;;;;76.45;48.55;;;6.10;99.90;;;;;;5079100;28;20059;-66
2022/09/30 05:21:34;;;;;;;76.32;48.78;;;6.50;99.90;;;;;;5079174;28;20044;-66
2022/09/30 05:24:01;;;;;;;72.65;49.08;;;6.20;99.90;;;;;;5062689;28;20035;-66
2022/09/30 05:26:27;;;;;;;65.07;45.50;;;6.30;99.90;;;;;;5062198;28;20298;-66
2022/09/30 05:28:52;;;;;;;65.95;45.75;;;6.20;99.90;;;;;;5062881;28;20040;-67
2022/09/30 05:31:19;;;;;;;62.00;45.85;;;6.40;99.90;;;;;;5078373;28;20040;-66
2022/09/30 05:33:45;;;;;;;68.25;47.50;;;6.40;99.90;;;;;;5079315;28;20044;-67
2022/09/30 05:36:14;;;;;;;58.33;41.15;;;6.60;99.90;;;;;;5078317;28;20044;-66
2022/09/30 05:38:40;;;;;;;63.63;46.03;;;6.50;99.90;;;;;;5060561;28;20688;-66
2022/09/30 05:41:10;;;;;;;59.00;42.22;;;6.70;99.90;;;;;;5078114;28;20058;-66
2022/09/30 05:43:38;;;;;;;57.17;42.10;;;6.40;99.90;;;;;;5077403;28;20036;-65
2022/09/30 05:46:04;;;;;;;54.45;40.42;;;6.70;99.90;;;;;;5078363;28;20047;-67
2022/09/30 05:48:29;;;;;;;60.85;43.67;;;6.50;99.90;;;;;;5078646;28;20028;-66
2022/09/30 05:50:56;;;;;;;64.30;45.55;;;6.90;99.90;;;;;;5079389;28;20409;-66
2022/09/30 05:53:22;;;;;;;66.40;46.30;;;6.40;99.90;;;;;;5078277;28;20053;-67
2022/09/30 05:55:49;;;;;;;75.05;47.03;;;6.20;99.90;;;;;;5061383;28;20082;-65
2022/09/30 05:58:16;;;;;;;54.45;37.78;;;6.30;99.90;;;;;;5077740;28;20056;-65
2022/09/30 06:00:43;;;;;;;66.43;41.63;;;6.40;99.90;;;;;;5077529;28;20043;-66
2022/09/30 06:03:09;;;;;;;66.90;45.70;;;6.30;99.90;;;;;;5077646;28;20138;-66
2022/09/30 06:05:35;;;;;;;59.22;42.63;;;6.70;99.90;;;;;;5078300;28;20127;-66
2022/09/30 06:08:02;;;;;;;57.47;38.78;;;6.60;99.90;;;;;;5061732;28;20043;-66
2022/09/30 06:10:28;;;;;;;55.95;40.78;;;6.50;99.90;;;;;;5079362;28;20046;-66
2022/09/30 06:12:54;;;;;;;49.80;37.92;;;6.50;99.90;;;;;;5079882;28;20044;-67
2022/09/30 06:15:19;;;;;;;48.35;38.83;;;6.70;99.90;;;;;;5062671;28;20028;-66
2022/09/30 06:17:50;;;;;;;54.10;38.70;;;6.50;99.90;;;;;;5063213;28;20047;-66
2022/09/30 06:20:16;;;;;;;49.42;38.00;;;6.90;99.90;;;;;;5079048;28;20047;-67
2022/09/30 06:22:42;;;;;;;59.03;42.17;;;6.40;99.90;;;;;;5078636;28;20044;-66
2022/09/30 06:25:08;;;;;;;46.83;37.47;;;6.70;99.90;;;;;;5061474;28;20130;-66
2022/09/30 06:27:34;;;;;;;52.40;38.15;;;7.00;99.90;;;;;;5078249;28;20078;-66
2022/09/30 06:30:00;;;;;;;51.17;38.72;;;6.50;99.90;;;;;;5061567;28;20048;-67
2022/09/30 06:32:25;;;;;;;62.83;42.25;;;6.50;99.90;;;;;;5077731;28;20977;-67
2022/09/30 06:34:54;;;;;;;45.33;35.72;;;6.90;99.90;;;;;;5078242;28;20218;-67
2022/09/30 06:37:21;;;;;;;55.17;40.60;;;7.20;99.90;;;;;;5004218;28;1141369;-66
2022/09/30 06:39:47;;;;;;;40.80;34.38;;;6.90;99.90;;;;;;5078611;28;20830;-67
2022/09/30 06:42:13;;;;;;;41.05;36.08;;;6.90;99.90;;;;;;5078379;28;20037;-67
2022/09/30 06:44:38;;;;;;;41.22;35.35;;;6.90;99.90;;;;;;5061809;28;20555;-67
2022/09/30 06:47:04;;;;;;;41.00;35.35;;;7.50;99.90;;;;;;5061756;28;20039;-67
2022/09/30 06:49:30;;;;;;;37.13;33.13;;;7.40;99.90;;;;;;5078690;28;20040;-67
2022/09/30 06:51:56;;;;;;;38.92;34.45;;;7.30;99.90;;;;;;5078829;28;20086;-66
2022/09/30 06:54:22;;;;;;;38.35;34.20;;;7.70;99.90;;;;;;5060747;28;20448;-66
2022/09/30 06:56:48;;;;;;;41.70;35.70;;;7.60;99.90;;;;;;5061932;28;20079;-67
2022/09/30 06:59:16;;;;;;;36.53;31.45;;;7.70;99.90;;;;;;5060890;28;20042;-66
2022/09/30 07:01:43;;;;;;;45.17;37.30;;;7.50;99.90;;;;;;5078127;28;20139;-67
2022/09/30 07:04:10;;;;;;;50.08;39.28;;;7.80;99.90;;;;;;5077116;28;20054;-67
2022/09/30 07:06:37;;;;;;;46.83;38.13;;;8.20;99.90;;;;;;5078429;28;20107;-67
2022/09/30 07:09:07;;;;;;;44.50;37.95;;;8.00;99.90;;;;;;5077841;28;20509;-67
2022/09/30 07:11:33;;;;;;;40.92;35.55;;;8.10;99.90;;;;;;5078333;28;20410;-67
2022/09/30 07:13:58;;;;;;;50.72;37.03;;;8.80;99.90;;;;;;5078084;28;20046;-67
2022/09/30 07:16:24;;;;;;;33.13;29.42;;;9.30;99.90;;;;;;5061269;28;20044;-67
2022/09/30 07:18:50;;;;;;;25.55;22.80;;;9.60;99.90;;;;;;5046220;28;20067;-67
2022/09/30 07:21:19;;;;;;;20.33;18.23;;;9.90;99.90;;;;;;5079376;28;20051;-67
2022/09/30 07:23:48;;;;;;;19.40;17.58;;;9.50;99.90;;;;;;5079461;28;20040;-67
2022/09/30 07:26:17;;;;;;;19.75;17.83;;;9.70;99.90;;;;;;5062653;28;20083;-67
2022/09/30 07:28:43;;;;;;;15.40;14.00;;;9.60;99.90;;;;;;5079821;28;20062;-67
2022/09/30 07:31:21;;;;;;;15.18;13.77;;;9.90;99.90;;;;;;5079404;28;20052;-68
2022/09/30 07:33:50;;;;;;;14.70;13.30;;;10.20;99.90;;;;;;5079630;28;20570;-67
2022/09/30 07:36:17;;;;;;;10.98;8.90;;;11.00;99.90;;;;;;5079650;28;20118;-65
2022/09/30 07:38:44;;;;;;;8.15;7.55;;;11.40;99.90;;;;;;5046020;28;20044;-65
2022/09/30 07:41:23;;;;;;;9.48;8.68;;;11.90;99.90;;;;;;5079516;28;20039;-65
2022/09/30 07:43:49;;;;;;;8.25;7.45;;;11.70;99.90;;;;;;5079643;28;20044;-65
2022/09/30 07:46:25;;;;;;;7.82;6.55;;;12.30;99.90;;;;;;5062348;28;20097;-65
2022/09/30 07:48:55;;;;;;;6.63;5.78;;;12.30;99.90;;;;;;5079489;28;20070;-64
2022/09/30 07:51:29;;;;;;;5.18;4.78;;;12.70;99.90;;;;;;5062177;28;20044;-66
2022/09/30 07:53:58;;;;;;;4.97;4.45;;;13.30;99.90;;;;;;5079165;28;20054;-66
2022/09/30 07:56:25;;;;;;;4.47;3.67;;;13.30;99.90;;;;;;5079140;28;20043;-66
2022/09/30 07:58:59;;;;;;;4.00;3.60;;;13.50;99.90;;;;;;5078804;28;20069;-67
2022/09/30 08:01:27;;;;;;;3.53;3.22;;;13.50;99.90;;;;;;5079227;28;20058;-67
2022/09/30 08:03:55;;;;;;;4.65;3.17;;;13.50;99.90;;;;;;5078974;28;20309;-66
2022/09/30 08:06:22;;;;;;;4.35;3.15;;;13.90;99.90;;;;;;5062473;28;20032;-66
2022/09/30 08:08:51;;;;;;;3.58;2.72;;;14.20;99.90;;;;;;5046451;28;20113;-66
2022/09/30 08:11:16;;;;;;;2.75;2.42;;;14.40;99.90;;;;;;5045621;28;20089;-66
2022/09/30 08:13:42;;;;;;;3.60;3.22;;;14.80;99.90;;;;;;5062102;28;20039;-66
2022/09/30 08:16:08;;;;;;;3.58;2.17;;;14.90;99.90;;;;;;5078892;28;20044;-66
2022/09/30 08:18:33;;;;;;;3.58;3.28;;;15.30;99.90;;;;;;5078920;28;20044;-67
2022/09/30 08:21:03;;;;;;;3.45;2.92;;;15.10;99.90;;;;;;5061737;28;20391;-66
2022/09/30 08:23:29;;;;;;;3.13;2.45;;;14.90;99.90;;;;;;5045658;28;20355;-66
2022/09/30 08:26:09;;;;;;;2.30;2.10;;;15.10;99.90;;;;;;5078566;28;20052;-66
2022/09/30 08:28:37;;;;;;;4.95;2.65;;;14.80;99.90;;;;;;5045796;28;20265;-66
2022/09/30 08:31:18;;;;;;;4.15;2.40;;;15.00;99.90;;;;;;5045516;28;20478;-66
2022/09/30 08:33:44;;;;;;;2.55;2.35;;;15.20;99.90;;;;;;5045655;28;20044;-66
2022/09/30 08:36:19;;;;;;;2.58;2.03;;;15.40;99.90;;;;;;5045213;28;20040;-67
2022/09/30 08:38:45;;;;;;;2.40;2.20;;;15.70;99.90;;;;;;5095464;28;20052;-67
2022/09/30 08:41:37;;;;;;;3.50;2.00;;;16.00;99.90;;;;;;5045493;28;20043;-67
2022/09/30 08:44:18;;;;;;;4.82;1.85;;;16.30;99.90;;;;;;5078764;28;20051;-66
2022/09/30 08:47:18;;;;;;;3.97;2.08;;;16.30;99.90;;;;;;5045540;28;20044;-66
2022/09/30 08:50:03;;;;;;;4.60;2.20;;;16.20;99.90;;;;;;5045576;28;20683;-67
2022/09/30 08:52:46;;;;;;;2.53;1.25;;;16.40;99.90;;;;;;5045712;28;20096;-67
2022/09/30 08:55:25;;;;;;;3.45;1.20;;;16.60;99.90;;;;;;5078317;28;20498;-67
2022/09/30 08:57:54;;;;;;;2.42;1.10;;;16.80;99.90;;;;;;5078381;28;20374;-67
2022/09/30 09:00:21;;;;;;;2.20;1.00;;;16.60;99.90;;;;;;5078688;28;20044;-67
2022/09/30 09:03:04;;;;;;;4.90;1.00;;;16.50;99.90;;;;;;5078399;28;20180;-66
2022/09/30 09:06:03;;;;;;;2.60;1.10;;;16.90;99.90;;;;;;5061420;28;20152;-67
2022/09/30 09:08:48;;;;;;;1.55;1.02;;;16.90;99.90;;;;;;5078193;28;20501;-66
2022/09/30 09:11:39;;;;;;;2.13;0.80;;;16.70;99.90;;;;;;5061002;28;20078;-66
2022/09/30 09:14:28;;;;;;;2.58;0.90;;;17.10;99.90;;;;;;5078682;28;20501;-66
2022/09/30 09:17:12;;;;;;;1.33;0.90;;;17.20;99.90;;;;;;5078683;28;20401;-67
2022/09/30 09:20:04;;;;;;;2.03;0.60;;;17.50;99.90;;;;;;5045340;28;20045;-67
2022/09/30 09:22:31;;;;;;;3.03;0.65;;;17.60;99.90;;;;;;5045345;28;20044;-66
2022/09/30 09:24:57;;;;;;;2.80;0.82;;;17.60;99.90;;;;;;5045116;28;20393;-66
2022/09/30 09:27:34;;;;;;;1.98;0.70;;;17.50;99.90;;;;;;5079314;28;20076;-67
2022/09/30 09:30:13;;;;;;;1.73;0.70;;;17.50;99.90;;;;;;5082059;28;20550;-67
2022/09/30 09:32:40;;;;;;;2.05;1.10;;;17.70;99.90;;;;;;5081905;28;20043;-67
2022/09/30 09:35:14;;;;;;;1.85;0.75;;;17.60;99.90;;;;;;5081556;28;20048;-68
2022/09/30 09:41:11;;;;;;;1.95;0.75;;;18.10;99.90;;;;;;5081683;28;20051;-67
2022/09/30 09:44:02;;;;;;;2.72;0.82;;;18.20;99.90;;;;;;5081582;28;20047;-66
2022/09/30 09:47:12;;;;;;;2.05;1.08;;;18.30;99.90;;;;;;5064746;28;20044;-66
2022/09/30 09:49:45;;;;;;;3.63;1.10;;;18.60;99.90;;;;;;5057667;28;20048;-67
2022/09/30 09:52:11;;;;;;;3.50;1.20;;;18.60;99.90;;;;;;5081462;28;20040;-67
2022/09/30 09:54:45;;;;;;;2.20;1.13;;;18.80;99.90;;;;;;5064088;28;20401;-65
2022/09/30 09:57:23;;;;;;;3.15;1.33;;;18.80;99.90;;;;;;5081053;28;20498;-66
2022/09/30 09:59:57;;;;;;;2.22;1.67;;;18.60;99.90;;;;;;5064737;28;20347;-65
2022/09/30 10:02:31;;;;;;;2.63;1.50;;;18.70;99.90;;;;;;5064489;28;20040;-65
2022/09/30 10:05:02;;;;;;;3.22;1.20;;;18.50;99.90;;;;;;5047823;28;20044;-66
2022/09/30 10:07:30;;;;;;;3.42;1.30;;;18.80;99.90;;;;;;5080957;28;20829;-65
2022/09/30 10:10:22;;;;;;;2.80;1.70;;;18.70;99.90;;;;;;5081169;28;20047;-66
2022/09/30 10:12:48;;;;;;;1.95;1.15;;;18.80;99.90;;;;;;5061362;28;20844;-66
2022/09/30 10:15:22;;;;;;;2.70;1.23;;;19.00;99.90;;;;;;5080645;28;20086;-66
2022/09/30 10:17:53;;;;;;;1.52;0.82;;;18.70;99.90;;;;;;5080745;28;20123;-66
2022/09/30 10:20:29;;;;;;;1.65;0.70;;;19.00;99.90;;;;;;5081210;28;20048;-66
2022/09/30 10:23:31;;;;;;;1.45;0.70;;;19.40;99.90;;;;;;5064130;28;20048;-66
2022/09/30 10:26:02;;;;;;;1.80;0.60;;;19.40;99.90;;;;;;5081055;28;20040;-67
2022/09/30 10:28:31;;;;;;;1.15;0.50;;;19.70;99.90;;;;;;5080640;28;20425;-66
2022/09/30 10:31:06;;;;;;;1.10;0.60;;;19.60;99.90;;;;;;5081023;28;20123;-66
2022/09/30 10:33:43;;;;;;;1.83;0.50;;;19.30;99.90;;;;;;5063824;28;20485;-64
2022/09/30 10:36:19;;;;;;;1.50;0.40;;;18.70;99.90;;;;;;5080415;28;20040;-66
2022/09/30 10:38:58;;;;;;;1.17;0.22;;;18.70;99.90;;;;;;5079399;28;20105;-67
2022/09/30 10:41:27;;;;;;;0.70;0.20;;;18.50;99.90;;;;;;5063967;28;20570;-67
2022/09/30 10:43:56;;;;;;;1.52;0.30;;;19.10;99.90;;;;;;5080675;28;20039;-67
2022/09/30 10:46:37;;;;;;;0.75;0.20;;;19.40;99.90;;;;;;5063764;28;20047;-68
2022/09/30 10:49:29;;;;;;;0.47;0.20;;;19.30;99.90;;;;;;5047226;28;20517;-65
2022/09/30 10:51:56;;;;;;;1.10;0.20;;;19.40;99.90;;;;;;5096582;28;20055;-65
2022/09/30 10:54:50;;;;;;;0.45;0.20;;;19.20;99.90;;;;;;5079910;28;20052;-67
2022/09/30 10:57:19;;;;;;;0.80;0.20;;;19.30;99.90;;;;;;5080210;28;20527;-65
2022/09/30 10:59:46;;;;;;;0.25;0.10;;;19.80;99.90;;;;;;5080264;28;20052;-65
2022/09/30 11:02:25;;;;;;;1.20;0.10;;;20.10;99.90;;;;;;5079924;28;20043;-65
2022/09/30 11:05:06;;;;;;;0.90;0.10;;;19.90;99.90;;;;;;5079887;28;20047;-66
2022/09/30 11:07:45;;;;;;;0.38;0.10;;;20.00;99.90;;;;;;5080132;28;20076;-66
2022/09/30 11:10:33;;;;;;;0.60;0.10;;;19.90;99.90;;;;;;5047075;28;20048;-65
2022/09/30 11:13:12;;;;;;;0.17;0.00;;;19.90;99.90;;;;;;5063011;28;20540;-66
2022/09/30 11:16:04;;;;;;;0.95;0.10;;;19.90;99.90;;;;;;5079764;28;20040;-66
2022/09/30 11:18:51;;;;;;;0.70;0.13;;;20.10;99.90;;;;;;5079813;28;20044;-65
2022/09/30 11:21:39;;;;;;;0.38;0.10;;;20.00;99.90;;;;;;5079700;28;20040;-65
2022/09/30 11:24:25;;;;;;;0.63;0.10;;;20.10;99.90;;;;;;5079367;28;20044;-64
2022/09/30 11:27:00;;;;;;;0.63;0.20;;;20.20;99.90;;;;;;5058798;28;20147;-65
2022/09/30 11:29:28;;;;;;;0.30;0.13;;;20.60;99.90;;;;;;5046654;28;20055;-65
2022/09/30 11:32:00;;;;;;;1.65;0.20;;;20.40;99.90;;;;;;5046418;28;20054;-65
2022/09/30 11:34:45;;;;;;;0.85;0.20;;;20.30;99.90;;;;;;5046409;28;20093;-66
2022/09/30 11:37:19;;;;;;;1.88;0.20;;;19.80;99.90;;;;;;5079352;28;20052;-65
2022/09/30 11:39:54;;;;;;;0.93;0.32;;;20.00;99.90;;;;;;5046714;28;20063;-65
2022/09/30 11:42:35;;;;;;;2.40;1.15;;;20.70;99.90;;;;;;5079515;28;20051;-66
2022/09/30 11:45:30;;;;;;;1.63;1.00;;;20.90;99.90;;;;;;5046236;28;20043;-66
2022/09/30 11:48:04;;;;;;;1.65;0.80;;;20.20;99.90;;;;;;5079216;28;20109;-66
2022/09/30 11:50:45;;;;;;;1.40;0.88;;;20.40;99.90;;;;;;5078401;28;20040;-66
2022/09/30 11:53:11;;;;;;;2.38;0.82;;;20.50;99.90;;;;;;5064113;28;20044;-66
2022/09/30 11:56:01;;;;;;;1.27;0.70;;;21.00;99.90;;;;;;5083416;28;20501;-66
2022/09/30 11:58:36;;;;;;;1.30;0.57;;;20.50;99.90;;;;;;5066144;28;20401;-66
2022/09/30 12:01:42;;;;;;;2.15;0.50;;;20.10;99.90;;;;;;5049369;28;20073;-66
2022/09/30 12:04:17;;;;;;;1.02;0.40;;;20.00;99.90;;;;;;5083503;28;20048;-65
2022/09/30 12:07:04;;;;;;;1.45;0.40;;;19.60;99.90;;;;;;5083605;28;20127;-68
2022/09/30 12:09:43;;;;;;;2.50;0.38;;;18.80;99.90;;;;;;5082600;28;20066;-66
2022/09/30 12:12:13;;;;;;;1.70;0.30;;;18.00;99.90;;;;;;5083310;28;20052;-66
2022/09/30 12:14:41;;;;;;;0.75;0.20;;;18.70;99.90;;;;;;5066281;28;20043;-68
2022/09/30 12:17:21;;;;;;;0.45;0.20;;;19.30;99.90;;;;;;5083549;28;20078;-66
2022/09/30 12:19:50;;;;;;;0.40;0.20;;;19.30;99.90;;;;;;5082831;28;20051;-66
2022/09/30 12:22:38;;;;;;;2.28;0.30;;;19.80;99.90;;;;;;5065885;28;20090;-66
2022/09/30 12:25:21;;;;;;;0.45;0.20;;;20.20;99.90;;;;;;5081886;28;20048;-66
2022/09/30 12:27:53;;;;;;;1.35;0.40;;;20.20;99.90;;;;;;5082457;28;20036;-65
2022/09/30 12:30:21;;;;;;;1.45;0.30;;;19.80;99.90;;;;;;5065828;28;20055;-64
2022/09/30 12:33:02;;;;;;;0.70;0.30;;;19.60;99.90;;;;;;5065672;28;20463;-66
2022/09/30 12:35:37;;;;;;;1.10;0.43;;;19.40;99.90;;;;;;5083487;28;20549;-65
2022/09/30 12:38:15;;;;;;;1.05;0.30;;;18.50;99.90;;;;;;5081538;28;20079;-66
2022/09/30 12:41:15;;;;;;;1.08;0.30;;;18.80;99.90;;;;;;5065158;28;20040;-67
2022/09/30 12:44:05;;;;;;;1.38;0.30;;;19.90;99.90;;;;;;5065368;28;20050;-69
2022/09/30 12:47:08;;;;;;;1.10;0.30;;;20.20;99.90;;;;;;5083104;28;20716;-66
2022/09/30 12:49:37;;;;;;;2.45;0.30;;;20.40;99.90;;;;;;5082294;28;20193;-68
2022/09/30 12:52:06;;;;;;;1.95;0.30;;;20.90;99.90;;;;;;5065551;28;20096;-66
2022/09/30 12:54:35;;;;;;;1.45;0.40;;;21.20;99.90;;;;;;5082809;28;20072;-65
2022/09/30 12:57:05;;;;;;;0.98;0.32;;;20.60;99.90;;;;;;5082969;28;20044;-66
2022/09/30 12:59:34;;;;;;;0.73;0.30;;;20.30;99.90;;;;;;5082281;28;20040;-66
2022/09/30 13:02:03;;;;;;;0.90;0.20;;;20.80;99.90;;;;;;5082797;28;20533;-64
2022/09/30 13:04:32;;;;;;;1.15;0.30;;;21.00;99.60;;;;;;5070341;28;20303;-68
2022/09/30 13:06:57;;;;;;;0.98;0.30;;;20.10;97.10;;;;;;5087198;28;20051;-64
2022/09/30 13:09:57;;;;;;;0.77;0.25;;;19.10;99.90;;;;;;5086296;28;20457;-65
2022/09/30 13:12:45;;;;;;;3.42;0.30;;;18.50;99.90;;;;;;5060807;28;20175;-66
2022/09/30 13:15:22;;;;;;;1.00;0.30;;;18.70;99.90;;;;;;5085733;28;20059;-65
2022/09/30 13:17:48;;;;;;;0.75;0.20;;;19.10;99.90;;;;;;5086130;28;20133;-65